LLBG

Ben Gurion International Airport

Tel Aviv, Israel
METAR LLBG 190920Z 25007KT 210V290 9999 FEW032 31/22 Q1006 NOSIG
Observed Flight Rules
Jul-19 @ 09:20 UTC (18 minutes ago) Visual Flight Rules
Wind Visibility Clouds
250° at 7 knots 10,000+ meters
  • Few at 3,200' AGL
Temperatures Readings
Current 31°C / 88°F
Dewpoint 22°C / 72°F
Humidity 59%
Altimeter 29.7" Hg
Pressure 1006 hPa
Elevation 49
METAR LLBG 190920Z 25007KT 210V290 9999 FEW032 31/22 Q1006 NOSIG
Observed Flight Rules
Jul-19 @ 09:20 UTC
(18 minutes ago)
VFR
Wind Visibility
250° at 7 knots 10,000+ meters
Clouds
  • Few at 3,200' AGL
Temperature Dewpoint
31°C / 88°F 22°C / 72°F
Humidity Altimeter Pressure
59% 29.7" Hg 1006 hPa